sensor_id;sensor_type;location;lat;lon;timestamp;pressure;altitude;pressure_sealevel;temperature;humidity
32324;BME280;25666;44.350;9.222;2022-12-11T00:00:48;99773.16;;;7.27;100.00
32324;BME280;25666;44.350;9.222;2022-12-11T00:03:17;99775.28;;;7.18;100.00
32324;BME280;25666;44.350;9.222;2022-12-11T00:05:44;99770.38;;;7.27;100.00
32324;BME280;25666;44.350;9.222;2022-12-11T00:08:11;99770.06;;;7.28;100.00
32324;BME280;25666;44.350;9.222;2022-12-11T00:10:36;99758.72;;;7.33;100.00
32324;BME280;25666;44.350;9.222;2022-12-11T00:13:02;99769.13;;;7.52;100.00
32324;BME280;25666;44.350;9.222;2022-12-11T00:15:28;99753.59;;;7.47;100.00
32324;BME280;25666;44.350;9.222;2022-12-11T00:17:53;99763.47;;;7.33;100.00
32324;BME280;25666;44.350;9.222;2022-12-11T00:20:19;99757.94;;;7.33;100.00
32324;BME280;25666;44.350;9.222;2022-12-11T00:22:45;99755.34;;;7.40;100.00
32324;BME280;25666;44.350;9.222;2022-12-11T00:25:10;99744.91;;;7.49;100.00
32324;BME280;25666;44.350;9.222;2022-12-11T00:27:36;99742.41;;;7.44;100.00
32324;BME280;25666;44.350;9.222;2022-12-11T00:30:02;99740.16;;;7.34;100.00
32324;BME280;25666;44.350;9.222;2022-12-11T00:32:28;99736.88;;;7.44;100.00
32324;BME280;25666;44.350;9.222;2022-12-11T00:34:54;99751.22;;;7.34;100.00
32324;BME280;25666;44.350;9.222;2022-12-11T00:37:19;99749.44;;;7.26;100.00
32324;BME280;25666;44.350;9.222;2022-12-11T00:39:45;99742.06;;;7.18;100.00
32324;BME280;25666;44.350;9.222;2022-12-11T00:42:10;99751.28;;;7.22;100.00
32324;BME280;25666;44.350;9.222;2022-12-11T00:44:36;99740.84;;;7.31;100.00
32324;BME280;25666;44.350;9.222;2022-12-11T00:47:02;99743.41;;;7.36;100.00
32324;BME280;25666;44.350;9.222;2022-12-11T00:49:28;99754.16;;;7.25;100.00
32324;BME280;25666;44.350;9.222;2022-12-11T00:51:53;99757.25;;;6.96;100.00
32324;BME280;25666;44.350;9.222;2022-12-11T00:54:19;99756.47;;;6.83;100.00
32324;BME280;25666;44.350;9.222;2022-12-11T00:56:44;99759.19;;;6.95;100.00
32324;BME280;25666;44.350;9.222;2022-12-11T00:59:10;99758.53;;;6.86;100.00
32324;BME280;25666;44.350;9.222;2022-12-11T01:01:35;99768.38;;;6.72;100.00
32324;BME280;25666;44.350;9.222;2022-12-11T01:04:01;99763.84;;;6.91;100.00
32324;BME280;25666;44.350;9.222;2022-12-11T01:06:27;99765.91;;;6.94;100.00
32324;BME280;25666;44.350;9.222;2022-12-11T01:08:53;99758.69;;;6.78;100.00
32324;BME280;25666;44.350;9.222;2022-12-11T01:11:40;99768.47;;;6.75;100.00
32324;BME280;25666;44.350;9.222;2022-12-11T01:14:06;99771.50;;;6.70;100.00
32324;BME280;25666;44.350;9.222;2022-12-11T01:16:32;99767.44;;;6.68;100.00
32324;BME280;25666;44.350;9.222;2022-12-11T01:18:57;99774.81;;;6.76;100.00
32324;BME280;25666;44.350;9.222;2022-12-11T01:21:23;99762.50;;;6.73;100.00
32324;BME280;25666;44.350;9.222;2022-12-11T01:23:49;99765.34;;;6.77;100.00
32324;BME280;25666;44.350;9.222;2022-12-11T01:26:15;99772.94;;;6.80;100.00
32324;BME280;25666;44.350;9.222;2022-12-11T01:28:41;99776.31;;;6.85;100.00
32324;BME280;25666;44.350;9.222;2022-12-11T01:31:11;99778.03;;;6.78;100.00
32324;BME280;25666;44.350;9.222;2022-12-11T01:33:38;99778.97;;;6.70;100.00
32324;BME280;25666;44.350;9.222;2022-12-11T01:36:08;99789.13;;;6.41;100.00
32324;BME280;25666;44.350;9.222;2022-12-11T01:38:34;99783.72;;;6.57;100.00
32324;BME280;25666;44.350;9.222;2022-12-11T01:41:00;99779.00;;;6.58;100.00
32324;BME280;25666;44.350;9.222;2022-12-11T01:43:25;99784.72;;;6.65;100.00
32324;BME280;25666;44.350;9.222;2022-12-11T01:45:51;99787.59;;;6.68;100.00
32324;BME280;25666;44.350;9.222;2022-12-11T01:48:22;99775.81;;;6.83;100.00
32324;BME280;25666;44.350;9.222;2022-12-11T01:50:57;99775.47;;;6.97;100.00
32324;BME280;25666;44.350;9.222;2022-12-11T01:54:09;99761.59;;;7.09;100.00
32324;BME280;25666;44.350;9.222;2022-12-11T01:56:14;99772.31;;;6.46;100.00
32324;BME280;25666;44.350;9.222;2022-12-11T01:58:45;99777.09;;;6.74;100.00
32324;BME280;25666;44.350;9.222;2022-12-11T02:01:16;99773.72;;;6.92;100.00
32324;BME280;25666;44.350;9.222;2022-12-11T02:03:44;99778.56;;;6.95;100.00
32324;BME280;25666;44.350;9.222;2022-12-11T02:06:39;99790.03;;;6.70;100.00
32324;BME280;25666;44.350;9.222;2022-12-11T02:09:09;99790.84;;;6.70;100.00
32324;BME280;25666;44.350;9.222;2022-12-11T02:12:00;99795.69;;;6.61;100.00
32324;BME280;25666;44.350;9.222;2022-12-11T02:14:33;99790.66;;;6.39;100.00
32324;BME280;25666;44.350;9.222;2022-12-11T02:17:15;99794.31;;;6.43;100.00
32324;BME280;25666;44.350;9.222;2022-12-11T02:22:57;99791.78;;;6.50;100.00
32324;BME280;25666;44.350;9.222;2022-12-11T02:25:51;99796.38;;;6.22;100.00
32324;BME280;25666;44.350;9.222;2022-12-11T02:31:28;99809.19;;;6.38;100.00
32324;BME280;25666;44.350;9.222;2022-12-11T02:36:40;99813.78;;;6.34;100.00
32324;BME280;25666;44.350;9.222;2022-12-11T02:39:09;99808.69;;;6.24;100.00
32324;BME280;25666;44.350;9.222;2022-12-11T02:41:39;99809.13;;;6.02;100.00
32324;BME280;25666;44.350;9.222;2022-12-11T02:44:09;99806.59;;;5.97;100.00
32324;BME280;25666;44.350;9.222;2022-12-11T02:46:36;99798.44;;;6.13;100.00
32324;BME280;25666;44.350;9.222;2022-12-11T02:49:04;99796.50;;;6.13;100.00
32324;BME280;25666;44.350;9.222;2022-12-11T02:51:35;99802.03;;;6.25;100.00
32324;BME280;25666;44.350;9.222;2022-12-11T02:54:05;99799.25;;;6.01;100.00
32324;BME280;25666;44.350;9.222;2022-12-11T02:56:44;99797.50;;;6.09;100.00
32324;BME280;25666;44.350;9.222;2022-12-11T02:59:20;99804.53;;;6.06;100.00
32324;BME280;25666;44.350;9.222;2022-12-11T03:01:49;99803.97;;;6.13;100.00
32324;BME280;25666;44.350;9.222;2022-12-11T03:04:14;99804.31;;;6.11;100.00
32324;BME280;25666;44.350;9.222;2022-12-11T03:06:43;99798.31;;;6.09;100.00
32324;BME280;25666;44.350;9.222;2022-12-11T03:09:11;99804.91;;;6.17;100.00
32324;BME280;25666;44.350;9.222;2022-12-11T03:11:37;99789.22;;;6.21;100.00
32324;BME280;25666;44.350;9.222;2022-12-11T03:14:03;99793.16;;;6.32;100.00
32324;BME280;25666;44.350;9.222;2022-12-11T03:16:35;99789.22;;;6.09;100.00
32324;BME280;25666;44.350;9.222;2022-12-11T03:27:13;99800.63;;;5.74;100.00
32324;BME280;25666;44.350;9.222;2022-12-11T03:30:27;99798.22;;;5.73;100.00
32324;BME280;25666;44.350;9.222;2022-12-11T03:32:39;99803.03;;;5.64;100.00
32324;BME280;25666;44.350;9.222;2022-12-11T03:35:12;99797.94;;;5.54;100.00
32324;BME280;25666;44.350;9.222;2022-12-11T03:37:39;99803.66;;;5.49;100.00
32324;BME280;25666;44.350;9.222;2022-12-11T03:40:10;99793.81;;;5.60;100.00
32324;BME280;25666;44.350;9.222;2022-12-11T03:42:38;99795.16;;;5.86;100.00
32324;BME280;25666;44.350;9.222;2022-12-11T03:45:05;99784.94;;;5.99;100.00
32324;BME280;25666;44.350;9.222;2022-12-11T03:47:33;99793.38;;;6.03;100.00
32324;BME280;25666;44.350;9.222;2022-12-11T03:50:01;99782.81;;;5.72;100.00
32324;BME280;25666;44.350;9.222;2022-12-11T03:52:29;99793.84;;;5.39;100.00
32324;BME280;25666;44.350;9.222;2022-12-11T03:54:59;99800.44;;;5.47;100.00
32324;BME280;25666;44.350;9.222;2022-12-11T03:57:31;99795.50;;;5.52;100.00
32324;BME280;25666;44.350;9.222;2022-12-11T03:59:57;99801.00;;;5.73;100.00
32324;BME280;25666;44.350;9.222;2022-12-11T04:02:23;99807.09;;;5.46;100.00
32324;BME280;25666;44.350;9.222;2022-12-11T04:04:48;99796.78;;;5.55;100.00
32324;BME280;25666;44.350;9.222;2022-12-11T04:07:14;99790.69;;;5.61;100.00
32324;BME280;25666;44.350;9.222;2022-12-11T04:09:39;99790.34;;;5.30;100.00
32324;BME280;25666;44.350;9.222;2022-12-11T04:12:05;99788.41;;;5.30;100.00
32324;BME280;25666;44.350;9.222;2022-12-11T04:14:31;99790.72;;;5.28;100.00
32324;BME280;25666;44.350;9.222;2022-12-11T04:17:15;99795.69;;;5.35;100.00
32324;BME280;25666;44.350;9.222;2022-12-11T04:20:01;99797.09;;;5.41;100.00
32324;BME280;25666;44.350;9.222;2022-12-11T04:22:45;99796.88;;;5.46;100.00
32324;BME280;25666;44.350;9.222;2022-12-11T04:25:29;99803.97;;;5.35;100.00
32324;BME280;25666;44.350;9.222;2022-12-11T04:27:55;99810.47;;;5.30;100.00
32324;BME280;25666;44.350;9.222;2022-12-11T04:30:22;99798.19;;;5.28;100.00
32324;BME280;25666;44.350;9.222;2022-12-11T04:32:49;99798.00;;;5.45;100.00
32324;BME280;25666;44.350;9.222;2022-12-11T04:35:15;99800.72;;;5.33;100.00
32324;BME280;25666;44.350;9.222;2022-12-11T04:37:41;99789.13;;;5.39;100.00
32324;BME280;25666;44.350;9.222;2022-12-11T04:40:10;99785.50;;;5.27;100.00
32324;BME280;25666;44.350;9.222;2022-12-11T04:42:36;99790.16;;;5.35;100.00
32324;BME280;25666;44.350;9.222;2022-12-11T04:45:02;99783.06;;;5.46;100.00
32324;BME280;25666;44.350;9.222;2022-12-11T04:47:28;99782.00;;;5.71;100.00
32324;BME280;25666;44.350;9.222;2022-12-11T04:49:53;99773.84;;;5.75;100.00
32324;BME280;25666;44.350;9.222;2022-12-11T04:52:19;99769.78;;;5.60;100.00
32324;BME280;25666;44.350;9.222;2022-12-11T04:54:45;99769.06;;;5.51;100.00
32324;BME280;25666;44.350;9.222;2022-12-11T04:57:11;99768.59;;;5.49;100.00
32324;BME280;25666;44.350;9.222;2022-12-11T04:59:36;99770.66;;;5.52;100.00
32324;BME280;25666;44.350;9.222;2022-12-11T05:02:03;99777.03;;;5.65;100.00
32324;BME280;25666;44.350;9.222;2022-12-11T05:04:33;99761.16;;;5.62;100.00
32324;BME280;25666;44.350;9.222;2022-12-11T05:06:59;99768.03;;;5.56;100.00
32324;BME280;25666;44.350;9.222;2022-12-11T05:09:25;99768.16;;;5.59;100.00
32324;BME280;25666;44.350;9.222;2022-12-11T05:11:52;99783.19;;;5.50;100.00
32324;BME280;25666;44.350;9.222;2022-12-11T05:14:17;99773.53;;;5.44;100.00
32324;BME280;25666;44.350;9.222;2022-12-11T05:16:43;99779.63;;;5.49;100.00
32324;BME280;25666;44.350;9.222;2022-12-11T05:19:09;99765.28;;;5.56;100.00
32324;BME280;25666;44.350;9.222;2022-12-11T05:21:35;99774.53;;;5.39;100.00
32324;BME280;25666;44.350;9.222;2022-12-11T05:24:00;99770.59;;;5.28;100.00
32324;BME280;25666;44.350;9.222;2022-12-11T05:26:26;99770.63;;;5.40;100.00
32324;BME280;25666;44.350;9.222;2022-12-11T05:28:53;99757.81;;;5.56;100.00
32324;BME280;25666;44.350;9.222;2022-12-11T05:31:21;99762.06;;;5.54;100.00
32324;BME280;25666;44.350;9.222;2022-12-11T05:33:47;99761.97;;;5.62;100.00
32324;BME280;25666;44.350;9.222;2022-12-11T05:36:17;99759.19;;;5.62;100.00
32324;BME280;25666;44.350;9.222;2022-12-11T05:38:44;99756.59;;;5.12;100.00
32324;BME280;25666;44.350;9.222;2022-12-11T05:41:12;99750.81;;;5.26;100.00
32324;BME280;25666;44.350;9.222;2022-12-11T05:43:37;99758.28;;;5.25;100.00
32324;BME280;25666;44.350;9.222;2022-12-11T05:46:10;99756.25;;;5.34;100.00
32324;BME280;25666;44.350;9.222;2022-12-11T05:48:37;99756.72;;;5.49;100.00
32324;BME280;25666;44.350;9.222;2022-12-11T05:51:04;99747.25;;;5.70;100.00
32324;BME280;25666;44.350;9.222;2022-12-11T05:53:30;99759.09;;;5.71;100.00
32324;BME280;25666;44.350;9.222;2022-12-11T05:56:07;99755.06;;;5.68;100.00
32324;BME280;25666;44.350;9.222;2022-12-11T05:58:34;99759.94;;;5.83;100.00
32324;BME280;25666;44.350;9.222;2022-12-11T06:01:00;99755.22;;;5.84;100.00
32324;BME280;25666;44.350;9.222;2022-12-11T06:03:26;99754.06;;;5.73;100.00
32324;BME280;25666;44.350;9.222;2022-12-11T06:05:51;99756.72;;;5.81;100.00
32324;BME280;25666;44.350;9.222;2022-12-11T06:08:17;99751.53;;;5.80;100.00
32324;BME280;25666;44.350;9.222;2022-12-11T06:10:47;99752.06;;;5.61;100.00
32324;BME280;25666;44.350;9.222;2022-12-11T06:13:14;99749.13;;;5.46;100.00
32324;BME280;25666;44.350;9.222;2022-12-11T06:15:40;99762.63;;;5.59;100.00
32324;BME280;25666;44.350;9.222;2022-12-11T06:18:05;99755.19;;;5.72;100.00
32324;BME280;25666;44.350;9.222;2022-12-11T06:20:32;99765.38;;;5.92;100.00
32324;BME280;25666;44.350;9.222;2022-12-11T06:22:58;99760.09;;;5.87;100.00
32324;BME280;25666;44.350;9.222;2022-12-11T06:25:24;99761.16;;;6.19;100.00
32324;BME280;25666;44.350;9.222;2022-12-11T06:27:50;99773.69;;;6.04;100.00
32324;BME280;25666;44.350;9.222;2022-12-11T06:30:15;99774.47;;;5.92;100.00
32324;BME280;25666;44.350;9.222;2022-12-11T06:32:42;99779.19;;;5.92;100.00
32324;BME280;25666;44.350;9.222;2022-12-11T06:35:07;99781.75;;;5.97;100.00
32324;BME280;25666;44.350;9.222;2022-12-11T06:37:34;99784.44;;;5.85;100.00
32324;BME280;25666;44.350;9.222;2022-12-11T06:40:00;99785.63;;;5.96;100.00
32324;BME280;25666;44.350;9.222;2022-12-11T06:42:28;99781.88;;;5.80;100.00
32324;BME280;25666;44.350;9.222;2022-12-11T06:44:54;99779.53;;;5.90;100.00
32324;BME280;25666;44.350;9.222;2022-12-11T06:47:21;99789.22;;;6.09;100.00
32324;BME280;25666;44.350;9.222;2022-12-11T06:49:47;99782.88;;;5.96;100.00
32324;BME280;25666;44.350;9.222;2022-12-11T06:52:12;99797.72;;;5.91;100.00
32324;BME280;25666;44.350;9.222;2022-12-11T06:54:38;99785.78;;;6.12;100.00
32324;BME280;25666;44.350;9.222;2022-12-11T06:57:03;99805.13;;;6.24;100.00
32324;BME280;25666;44.350;9.222;2022-12-11T06:59:29;99795.00;;;6.16;100.00
32324;BME280;25666;44.350;9.222;2022-12-11T07:01:55;99802.09;;;5.92;100.00
32324;BME280;25666;44.350;9.222;2022-12-11T07:04:20;99826.50;;;5.90;100.00
32324;BME280;25666;44.350;9.222;2022-12-11T07:06:49;99831.47;;;5.76;100.00
32324;BME280;25666;44.350;9.222;2022-12-11T07:09:15;99851.97;;;5.75;100.00
32324;BME280;25666;44.350;9.222;2022-12-11T07:11:41;99844.00;;;5.74;100.00
32324;BME280;25666;44.350;9.222;2022-12-11T07:14:07;99851.22;;;5.87;100.00
32324;BME280;25666;44.350;9.222;2022-12-11T07:16:33;99851.81;;;5.72;100.00
32324;BME280;25666;44.350;9.222;2022-12-11T07:18:59;99844.72;;;5.83;100.00
32324;BME280;25666;44.350;9.222;2022-12-11T07:21:24;99834.47;;;5.83;100.00
32324;BME280;25666;44.350;9.222;2022-12-11T07:23:50;99848.63;;;5.49;100.00
32324;BME280;25666;44.350;9.222;2022-12-11T07:26:18;99845.59;;;5.42;100.00
32324;BME280;25666;44.350;9.222;2022-12-11T07:28:44;99853.06;;;5.62;100.00
32324;BME280;25666;44.350;9.222;2022-12-11T07:31:12;99859.75;;;5.40;100.00
32324;BME280;25666;44.350;9.222;2022-12-11T07:33:38;99862.97;;;5.43;100.00
32324;BME280;25666;44.350;9.222;2022-12-11T07:36:06;99869.28;;;5.64;100.00
32324;BME280;25666;44.350;9.222;2022-12-11T07:38:32;99875.78;;;5.80;100.00
32324;BME280;25666;44.350;9.222;2022-12-11T07:41:07;99854.97;;;5.82;100.00
32324;BME280;25666;44.350;9.222;2022-12-11T07:43:34;99879.03;;;5.82;100.00
32324;BME280;25666;44.350;9.222;2022-12-11T07:46:14;99863.25;;;5.82;100.00
32324;BME280;25666;44.350;9.222;2022-12-11T07:48:42;99872.06;;;5.97;100.00
32324;BME280;25666;44.350;9.222;2022-12-11T07:51:14;99857.84;;;6.07;100.00
32324;BME280;25666;44.350;9.222;2022-12-11T07:53:41;99867.06;;;6.11;100.00
32324;BME280;25666;44.350;9.222;2022-12-11T07:56:07;99876.22;;;6.03;100.00
32324;BME280;25666;44.350;9.222;2022-12-11T07:58:33;99880.75;;;6.07;100.00
32324;BME280;25666;44.350;9.222;2022-12-11T08:01:00;99876.13;;;6.11;100.00
32324;BME280;25666;44.350;9.222;2022-12-11T08:03:25;99879.59;;;6.20;100.00
32324;BME280;25666;44.350;9.222;2022-12-11T08:05:51;99871.94;;;6.26;100.00
32324;BME280;25666;44.350;9.222;2022-12-11T08:08:18;99882.84;;;6.22;100.00
32324;BME280;25666;44.350;9.222;2022-12-11T08:10:44;99878.25;;;6.26;100.00
32324;BME280;25666;44.350;9.222;2022-12-11T08:13:10;99872.75;;;6.38;100.00
32324;BME280;25666;44.350;9.222;2022-12-11T08:15:36;99872.06;;;6.54;100.00
32324;BME280;25666;44.350;9.222;2022-12-11T08:18:02;99874.47;;;6.55;100.00
32324;BME280;25666;44.350;9.222;2022-12-11T08:20:27;99875.75;;;6.58;100.00
32324;BME280;25666;44.350;9.222;2022-12-11T08:22:55;99884.03;;;6.45;100.00
32324;BME280;25666;44.350;9.222;2022-12-11T08:25:20;99885.19;;;6.69;100.00
32324;BME280;25666;44.350;9.222;2022-12-11T08:27:46;99888.53;;;6.86;100.00
32324;BME280;25666;44.350;9.222;2022-12-11T08:30:11;99897.53;;;6.83;100.00
32324;BME280;25666;44.350;9.222;2022-12-11T08:32:38;99901.34;;;6.91;100.00
32324;BME280;25666;44.350;9.222;2022-12-11T08:35:04;99906.63;;;6.96;100.00
32324;BME280;25666;44.350;9.222;2022-12-11T08:37:30;99900.38;;;7.11;100.00
32324;BME280;25666;44.350;9.222;2022-12-11T08:39:55;99918.47;;;7.21;100.00
32324;BME280;25666;44.350;9.222;2022-12-11T08:42:21;99923.44;;;7.27;100.00
32324;BME280;25666;44.350;9.222;2022-12-11T08:44:46;99929.19;;;7.34;100.00
32324;BME280;25666;44.350;9.222;2022-12-11T08:47:12;99933.09;;;7.33;100.00
32324;BME280;25666;44.350;9.222;2022-12-11T08:49:39;99929.31;;;7.38;100.00
32324;BME280;25666;44.350;9.222;2022-12-11T08:52:05;99937.59;;;7.50;100.00
32324;BME280;25666;44.350;9.222;2022-12-11T08:54:31;99927.53;;;7.58;100.00
32324;BME280;25666;44.350;9.222;2022-12-11T08:56:56;99937.63;;;7.38;100.00
32324;BME280;25666;44.350;9.222;2022-12-11T08:59:22;99942.41;;;7.65;100.00
32324;BME280;25666;44.350;9.222;2022-12-11T09:01:49;99929.97;;;7.87;100.00
32324;BME280;25666;44.350;9.222;2022-12-11T09:04:15;99930.28;;;7.97;100.00
32324;BME280;25666;44.350;9.222;2022-12-11T09:06:40;99940.94;;;7.95;100.00
32324;BME280;25666;44.350;9.222;2022-12-11T09:09:06;99933.97;;;8.01;100.00
32324;BME280;25666;44.350;9.222;2022-12-11T09:11:34;99934.19;;;8.24;100.00
32324;BME280;25666;44.350;9.222;2022-12-11T09:14:00;99937.09;;;8.28;100.00
32324;BME280;25666;44.350;9.222;2022-12-11T09:16:27;99935.16;;;8.44;100.00
32324;BME280;25666;44.350;9.222;2022-12-11T09:18:55;99930.44;;;8.44;100.00
32324;BME280;25666;44.350;9.222;2022-12-11T09:21:24;99935.34;;;8.35;100.00
32324;BME280;25666;44.350;9.222;2022-12-11T09:23:54;99945.09;;;8.45;100.00
32324;BME280;25666;44.350;9.222;2022-12-11T09:26:21;99952.50;;;8.41;100.00
32324;BME280;25666;44.350;9.222;2022-12-11T09:28:47;99955.31;;;8.56;100.00
32324;BME280;25666;44.350;9.222;2022-12-11T09:31:18;99946.56;;;8.86;100.00
32324;BME280;25666;44.350;9.222;2022-12-11T09:33:44;99963.75;;;9.07;100.00
32324;BME280;25666;44.350;9.222;2022-12-11T09:36:10;99962.72;;;9.31;100.00
32324;BME280;25666;44.350;9.222;2022-12-11T09:38:36;99953.59;;;9.65;81.39
32324;BME280;25666;44.350;9.222;2022-12-11T09:46:34;99956.50;;;10.07;59.96
32324;BME280;25666;44.350;9.222;2022-12-11T09:49:02;99950.34;;;10.36;51.80
32324;BME280;25666;44.350;9.222;2022-12-11T09:51:50;99950.69;;;10.54;53.22
32324;BME280;25666;44.350;9.222;2022-12-11T09:54:17;99952.41;;;10.62;49.68
32324;BME280;25666;44.350;9.222;2022-12-11T09:56:52;99943.34;;;10.65;52.16
32324;BME280;25666;44.350;9.222;2022-12-11T10:02:32;99959.53;;;10.59;53.43
32324;BME280;25666;44.350;9.222;2022-12-11T10:05:29;99951.75;;;10.68;54.17
32324;BME280;25666;44.350;9.222;2022-12-11T10:10:46;99951.75;;;10.68;56.00
32324;BME280;25666;44.350;9.222;2022-12-11T10:16:08;99955.81;;;10.74;58.33
32324;BME280;25666;44.350;9.222;2022-12-11T10:18:37;99943.53;;;10.75;56.04
32324;BME280;25666;44.350;9.222;2022-12-11T10:21:03;99935.03;;;10.91;53.84
32324;BME280;25666;44.350;9.222;2022-12-11T10:23:35;99927.13;;;10.93;52.84
32324;BME280;25666;44.350;9.222;2022-12-11T10:26:16;99929.59;;;10.98;52.44
32324;BME280;25666;44.350;9.222;2022-12-11T10:28:43;99918.75;;;10.93;53.68
32324;BME280;25666;44.350;9.222;2022-12-11T10:31:16;99925.31;;;11.04;55.14
32324;BME280;25666;44.350;9.222;2022-12-11T10:34:01;99933.06;;;11.14;55.31
32324;BME280;25666;44.350;9.222;2022-12-11T10:36:30;99928.38;;;11.22;47.83
32324;BME280;25666;44.350;9.222;2022-12-11T10:38:56;99924.63;;;11.37;48.53
32324;BME280;25666;44.350;9.222;2022-12-11T10:41:36;99925.34;;;11.31;47.50
32324;BME280;25666;44.350;9.222;2022-12-11T10:44:13;99922.41;;;11.50;48.53
32324;BME280;25666;44.350;9.222;2022-12-11T10:46:40;99935.69;;;11.30;49.66
32324;BME280;25666;44.350;9.222;2022-12-11T10:49:20;99927.84;;;11.39;49.07
32324;BME280;25666;44.350;9.222;2022-12-11T10:51:46;99930.59;;;11.36;47.59
32324;BME280;25666;44.350;9.222;2022-12-11T10:56:54;99921.59;;;11.46;47.40
32324;BME280;25666;44.350;9.222;2022-12-11T11:04:43;99929.53;;;11.70;40.10
32324;BME280;25666;44.350;9.222;2022-12-11T11:07:14;99935.41;;;11.65;38.49
32324;BME280;25666;44.350;9.222;2022-12-11T11:09:40;99926.66;;;11.66;38.25
32324;BME280;25666;44.350;9.222;2022-12-11T11:12:24;99928.63;;;11.66;39.27
32324;BME280;25666;44.350;9.222;2022-12-11T11:15:02;99933.13;;;11.70;38.50
32324;BME280;25666;44.350;9.222;2022-12-11T11:17:30;99920.78;;;11.71;37.04
32324;BME280;25666;44.350;9.222;2022-12-11T11:19:58;99934.09;;;11.85;36.96
32324;BME280;25666;44.350;9.222;2022-12-11T11:22:25;99939.69;;;11.85;37.33
32324;BME280;25666;44.350;9.222;2022-12-11T11:24:56;99927.81;;;11.92;36.64
32324;BME280;25666;44.350;9.222;2022-12-11T11:27:32;99933.72;;;11.87;34.83
32324;BME280;25666;44.350;9.222;2022-12-11T11:30:06;99937.75;;;11.89;35.24
32324;BME280;25666;44.350;9.222;2022-12-11T11:32:38;99932.41;;;11.77;36.00
32324;BME280;25666;44.350;9.222;2022-12-11T11:37:40;99957.72;;;11.68;34.71
32324;BME280;25666;44.350;9.222;2022-12-11T11:40:15;99952.88;;;11.62;34.92
32324;BME280;25666;44.350;9.222;2022-12-11T11:45:49;99950.28;;;11.50;33.27
32324;BME280;25666;44.350;9.222;2022-12-11T11:51:15;99943.25;;;11.59;32.19
32324;BME280;25666;44.350;9.222;2022-12-11T11:53:55;99950.78;;;11.55;33.48
32324;BME280;25666;44.350;9.222;2022-12-11T11:56:26;99960.78;;;11.60;31.86
32324;BME280;25666;44.350;9.222;2022-12-11T11:59:11;99949.50;;;11.75;31.25
32324;BME280;25666;44.350;9.222;2022-12-11T12:01:40;99954.53;;;11.66;30.99
32324;BME280;25666;44.350;9.222;2022-12-11T12:04:06;99952.22;;;11.72;31.11
32324;BME280;25666;44.350;9.222;2022-12-11T12:06:44;99956.28;;;11.74;29.12
32324;BME280;25666;44.350;9.222;2022-12-11T12:15:00;99953.78;;;11.69;30.91
32324;BME280;25666;44.350;9.222;2022-12-11T12:31:43;99957.88;;;11.75;27.70
32324;BME280;25666;44.350;9.222;2022-12-11T12:34:17;99950.69;;;11.74;28.19
32324;BME280;25666;44.350;9.222;2022-12-11T12:39:38;99966.91;;;11.69;26.48
32324;BME280;25666;44.350;9.222;2022-12-11T12:45:15;99958.25;;;11.74;23.04
32324;BME280;25666;44.350;9.222;2022-12-11T12:47:43;99965.22;;;11.87;21.66
32324;BME280;25666;44.350;9.222;2022-12-11T12:50:16;99965.56;;;11.86;23.89
32324;BME280;25666;44.350;9.222;2022-12-11T12:52:42;99959.69;;;11.64;22.56
32324;BME280;25666;44.350;9.222;2022-12-11T12:57:53;99960.50;;;11.65;20.62
32324;BME280;25666;44.350;9.222;2022-12-11T13:02:52;99974.38;;;11.61;20.22
32324;BME280;25666;44.350;9.222;2022-12-11T13:05:40;99971.84;;;11.53;19.76
32324;BME280;25666;44.350;9.222;2022-12-11T13:08:06;99971.88;;;11.56;19.26
32324;BME280;25666;44.350;9.222;2022-12-11T13:10:39;99988.94;;;11.51;20.25
32324;BME280;25666;44.350;9.222;2022-12-11T13:13:28;99976.50;;;11.45;20.33
32324;BME280;25666;44.350;9.222;2022-12-11T13:16:25;99988.81;;;11.44;21.17
32324;BME280;25666;44.350;9.222;2022-12-11T13:18:50;99977.53;;;11.34;21.55
32324;BME280;25666;44.350;9.222;2022-12-11T13:26:40;99971.56;;;11.35;21.37
32324;BME280;25666;44.350;9.222;2022-12-11T13:29:30;99977.94;;;11.36;21.92
32324;BME280;25666;44.350;9.222;2022-12-11T13:34:46;99983.47;;;11.32;21.99
32324;BME280;25666;44.350;9.222;2022-12-11T13:37:29;99992.22;;;11.31;21.81
32324;BME280;25666;44.350;9.222;2022-12-11T13:39:59;100004.41;;;11.22;21.48
32324;BME280;25666;44.350;9.222;2022-12-11T13:42:31;100001.34;;;11.31;22.88
32324;BME280;25666;44.350;9.222;2022-12-11T13:44:57;100015.59;;;11.26;22.45
32324;BME280;25666;44.350;9.222;2022-12-11T13:47:23;100015.25;;;11.27;22.19
32324;BME280;25666;44.350;9.222;2022-12-11T13:49:53;100011.94;;;11.22;22.52
32324;BME280;25666;44.350;9.222;2022-12-11T13:52:22;100008.31;;;11.18;24.43
32324;BME280;25666;44.350;9.222;2022-12-11T13:54:54;100020.50;;;11.10;23.34
32324;BME280;25666;44.350;9.222;2022-12-11T13:57:25;100027.69;;;11.11;24.24
32324;BME280;25666;44.350;9.222;2022-12-11T13:59:54;100029.09;;;11.01;23.26
32324;BME280;25666;44.350;9.222;2022-12-11T14:04:58;100026.38;;;11.05;22.81
32324;BME280;25666;44.350;9.222;2022-12-11T14:07:28;100033.13;;;11.04;22.98
32324;BME280;25666;44.350;9.222;2022-12-11T14:10:02;100039.63;;;11.11;22.26
32324;BME280;25666;44.350;9.222;2022-12-11T14:12:30;100048.09;;;11.18;21.67
32324;BME280;25666;44.350;9.222;2022-12-11T14:14:58;100044.47;;;11.14;22.88
32324;BME280;25666;44.350;9.222;2022-12-11T14:17:31;100048.03;;;10.92;23.06
32324;BME280;25666;44.350;9.222;2022-12-11T14:20:00;100057.69;;;10.98;22.35
32324;BME280;25666;44.350;9.222;2022-12-11T14:22:27;100046.13;;;10.96;22.67
32324;BME280;25666;44.350;9.222;2022-12-11T14:24:59;100059.16;;;10.92;23.60
32324;BME280;25666;44.350;9.222;2022-12-11T14:27:28;100058.03;;;10.97;23.40
32324;BME280;25666;44.350;9.222;2022-12-11T14:29:54;100052.78;;;10.92;23.02
32324;BME280;25666;44.350;9.222;2022-12-11T14:34:52;100067.22;;;10.97;23.10
32324;BME280;25666;44.350;9.222;2022-12-11T14:37:20;100065.09;;;10.91;25.08
32324;BME280;25666;44.350;9.222;2022-12-11T14:40:00;100093.47;;;10.96;23.28
32324;BME280;25666;44.350;9.222;2022-12-11T14:42:33;100081.50;;;10.96;24.10